This is the latest recevied weather packets stored in our database for station/object HP1COO-13. If no packets are shown the sender has not sent any weather packets the latest 10 day(s).
| Time | Temp. | Humidity | Pressure | Rain* | Wind** | Luminosity | Snow |
|---|---|---|---|---|---|---|---|
| 1788313390 | 26.67° C | 93% | 1010.1 hPa | 0 mm | - | - | - |
| 1788312757 | 26.67° C | 93% | 1010.5 hPa | 0 mm | - | - | - |
| 1788312124 | 26.67° C | 92% | 1010.4 hPa | 0 mm | - | - | - |
| 1788311491 | 26.67° C | 92% | 1010.4 hPa | 0 mm | - | - | - |
| 1788310225 | 26.67° C | 92% | 1010.1 hPa | 0 mm | - | - | - |
| 1788309592 | 26.67° C | 92% | 1009.9 hPa | 0 mm | - | - | - |
| 1788308960 | 26.67° C | 92% | 1009.8 hPa | 0 mm | - | - | - |
| 1788308326 | 26.67° C | 91% | 1009.7 hPa | 0 mm | - | - | - |
| 1788307693 | 26.67° C | 90% | 1009.4 hPa | 0 mm | - | - | - |
| 1788307060 | 27.22° C | 90% | 1009.4 hPa | 0 mm | - | - | - |
| 1788305794 | 27.22° C | 91% | 1009.8 hPa | 0 mm | - | - | - |
| 1788305161 | 26.67° C | 90% | 1009.3 hPa | 0 mm | - | - | - |
| 1788304528 | 27.22° C | 91% | 1009.2 hPa | 0.25 mm | - | - | - |
| 1788303262 | 26.67° C | 93% | 1009 hPa | 5.33 mm | - | - | - |
| 1788302629 | 27.22° C | 93% | 1008.8 hPa | 5.84 mm | - | - | - |
| 1788301996 | 27.22° C | 92% | 1008.4 hPa | 5.84 mm | - | - | - |
| 1788301363 | 27.22° C | 90% | 1008.4 hPa | 5.59 mm | - | - | - |
| 1788300097 | 28.89° C | 86% | 1008.2 hPa | 3.56 mm | - | - | - |
| 1788299464 | 30° C | 81% | 1008.1 hPa | 0.25 mm | - | - | - |
| 1788298831 | 30.56° C | 76% | 1007.8 hPa | 0 mm | - | - | - |
| 1788298198 | 30.56° C | 75% | 1007.7 hPa | 0 mm | - | - | - |
| 1788297566 | 30.56° C | 75% | 1007.4 hPa | 0 mm | - | - | - |
| 1788296932 | 31.11° C | 74% | 1007.4 hPa | 0 mm | - | - | - |
| 1788296299 | 31.11° C | 73% | 1007.4 hPa | 0 mm | - | - | - |
| 1788295666 | 31.67° C | 72% | 1007.6 hPa | 0 mm | - | - | - |
* Rain latest hour (hover to see other rain measurements)
** Current wind speed in m/s (hover to see current wind gust speed)